sensor_id;sensor_type;location;lat;lon;timestamp;P1;durP1;ratioP1;P2;durP2;ratioP2
55312;SDS011;46892;45.668;11.756;2023-07-08T00:00:42;7.03;;;4.33;;
55312;SDS011;46892;45.668;11.756;2023-07-08T00:03:08;6.97;;;4.40;;
55312;SDS011;46892;45.668;11.756;2023-07-08T00:05:34;7.33;;;4.37;;
55312;SDS011;46892;45.668;11.756;2023-07-08T00:08:00;8.80;;;4.40;;
55312;SDS011;46892;45.668;11.756;2023-07-08T00:10:27;10.07;;;4.67;;
55312;SDS011;46892;45.668;11.756;2023-07-08T00:12:55;7.30;;;4.33;;
55312;SDS011;46892;45.668;11.756;2023-07-08T00:15:26;8.00;;;4.67;;
55312;SDS011;46892;45.668;11.756;2023-07-08T00:17:53;9.87;;;4.80;;
55312;SDS011;46892;45.668;11.756;2023-07-08T00:20:21;7.50;;;4.93;;
55312;SDS011;46892;45.668;11.756;2023-07-08T00:23:04;8.90;;;4.80;;
55312;SDS011;46892;45.668;11.756;2023-07-08T00:25:30;7.87;;;4.63;;
55312;SDS011;46892;45.668;11.756;2023-07-08T00:27:57;7.37;;;4.23;;
55312;SDS011;46892;45.668;11.756;2023-07-08T00:30:24;6.90;;;4.30;;
55312;SDS011;46892;45.668;11.756;2023-07-08T00:32:55;7.17;;;4.23;;
55312;SDS011;46892;45.668;11.756;2023-07-08T00:35:42;7.63;;;4.93;;
55312;SDS011;46892;45.668;11.756;2023-07-08T00:38:30;7.93;;;4.57;;
55312;SDS011;46892;45.668;11.756;2023-07-08T00:40:58;6.60;;;4.40;;
55312;SDS011;46892;45.668;11.756;2023-07-08T00:43:38;8.13;;;5.20;;
55312;SDS011;46892;45.668;11.756;2023-07-08T00:46:16;9.07;;;5.30;;
55312;SDS011;46892;45.668;11.756;2023-07-08T00:48:48;8.63;;;4.17;;
55312;SDS011;46892;45.668;11.756;2023-07-08T00:51:17;6.80;;;4.50;;
55312;SDS011;46892;45.668;11.756;2023-07-08T00:53:44;7.73;;;4.43;;
55312;SDS011;46892;45.668;11.756;2023-07-08T00:56:17;6.30;;;4.37;;
55312;SDS011;46892;45.668;11.756;2023-07-08T00:58:49;8.40;;;5.07;;
55312;SDS011;46892;45.668;11.756;2023-07-08T01:01:29;7.70;;;4.70;;
55312;SDS011;46892;45.668;11.756;2023-07-08T01:04:01;7.53;;;4.47;;
55312;SDS011;46892;45.668;11.756;2023-07-08T01:06:34;9.03;;;4.70;;
55312;SDS011;46892;45.668;11.756;2023-07-08T01:09:05;7.00;;;4.63;;
55312;SDS011;46892;45.668;11.756;2023-07-08T01:11:33;6.57;;;4.13;;
55312;SDS011;46892;45.668;11.756;2023-07-08T01:14:02;8.73;;;4.33;;
55312;SDS011;46892;45.668;11.756;2023-07-08T01:16:30;7.10;;;4.90;;
55312;SDS011;46892;45.668;11.756;2023-07-08T01:18:59;6.33;;;4.63;;
55312;SDS011;46892;45.668;11.756;2023-07-08T01:21:36;7.30;;;4.60;;
55312;SDS011;46892;45.668;11.756;2023-07-08T01:24:08;9.00;;;4.30;;
55312;SDS011;46892;45.668;11.756;2023-07-08T01:26:36;7.37;;;4.03;;
55312;SDS011;46892;45.668;11.756;2023-07-08T01:29:05;8.77;;;4.25;;
55312;SDS011;46892;45.668;11.756;2023-07-08T01:31:32;7.80;;;4.23;;
55312;SDS011;46892;45.668;11.756;2023-07-08T01:33:59;11.20;;;4.87;;
55312;SDS011;46892;45.668;11.756;2023-07-08T01:36:25;7.27;;;4.53;;
55312;SDS011;46892;45.668;11.756;2023-07-08T01:38:54;8.18;;;4.72;;
55312;SDS011;46892;45.668;11.756;2023-07-08T01:41:20;7.93;;;4.53;;
55312;SDS011;46892;45.668;11.756;2023-07-08T01:43:46;7.27;;;4.40;;
55312;SDS011;46892;45.668;11.756;2023-07-08T01:46:14;7.53;;;4.23;;
55312;SDS011;46892;45.668;11.756;2023-07-08T01:48:45;8.07;;;5.00;;
55312;SDS011;46892;45.668;11.756;2023-07-08T01:51:18;7.63;;;4.10;;
55312;SDS011;46892;45.668;11.756;2023-07-08T01:53:44;6.20;;;4.67;;
55312;SDS011;46892;45.668;11.756;2023-07-08T01:56:11;6.10;;;3.80;;
55312;SDS011;46892;45.668;11.756;2023-07-08T01:58:37;8.00;;;4.47;;
55312;SDS011;46892;45.668;11.756;2023-07-08T02:01:03;7.27;;;4.30;;
55312;SDS011;46892;45.668;11.756;2023-07-08T02:03:30;7.93;;;3.70;;
55312;SDS011;46892;45.668;11.756;2023-07-08T02:05:55;6.03;;;4.13;;
55312;SDS011;46892;45.668;11.756;2023-07-08T02:08:21;9.20;;;4.70;;
55312;SDS011;46892;45.668;11.756;2023-07-08T02:10:52;7.03;;;4.37;;
55312;SDS011;46892;45.668;11.756;2023-07-08T02:13:19;6.83;;;4.70;;
55312;SDS011;46892;45.668;11.756;2023-07-08T02:15:46;5.97;;;3.90;;
55312;SDS011;46892;45.668;11.756;2023-07-08T02:18:12;6.90;;;4.37;;
55312;SDS011;46892;45.668;11.756;2023-07-08T02:20:39;6.60;;;4.30;;
55312;SDS011;46892;45.668;11.756;2023-07-08T02:23:04;6.57;;;4.67;;
55312;SDS011;46892;45.668;11.756;2023-07-08T02:25:30;7.27;;;4.87;;
55312;SDS011;46892;45.668;11.756;2023-07-08T02:27:56;7.67;;;4.77;;
55312;SDS011;46892;45.668;11.756;2023-07-08T02:30:25;9.07;;;5.00;;
55312;SDS011;46892;45.668;11.756;2023-07-08T02:32:51;8.45;;;5.20;;
55312;SDS011;46892;45.668;11.756;2023-07-08T02:35:28;8.53;;;5.30;;
55312;SDS011;46892;45.668;11.756;2023-07-08T02:37:55;10.40;;;5.50;;
55312;SDS011;46892;45.668;11.756;2023-07-08T02:40:23;9.33;;;4.93;;
55312;SDS011;46892;45.668;11.756;2023-07-08T02:42:49;8.27;;;5.60;;
55312;SDS011;46892;45.668;11.756;2023-07-08T02:45:15;8.87;;;6.33;;
55312;SDS011;46892;45.668;11.756;2023-07-08T02:47:42;8.30;;;5.33;;
55312;SDS011;46892;45.668;11.756;2023-07-08T02:50:08;11.83;;;5.60;;
55312;SDS011;46892;45.668;11.756;2023-07-08T02:52:35;9.20;;;5.30;;
55312;SDS011;46892;45.668;11.756;2023-07-08T02:55:01;7.97;;;5.03;;
55312;SDS011;46892;45.668;11.756;2023-07-08T02:57:27;9.43;;;5.67;;
55312;SDS011;46892;45.668;11.756;2023-07-08T02:59:53;10.30;;;5.70;;
55312;SDS011;46892;45.668;11.756;2023-07-08T03:02:18;8.60;;;5.00;;
55312;SDS011;46892;45.668;11.756;2023-07-08T03:04:46;8.90;;;5.70;;
55312;SDS011;46892;45.668;11.756;2023-07-08T03:07:11;8.10;;;4.93;;
55312;SDS011;46892;45.668;11.756;2023-07-08T03:09:38;7.87;;;5.23;;
55312;SDS011;46892;45.668;11.756;2023-07-08T03:12:05;8.67;;;5.37;;
55312;SDS011;46892;45.668;11.756;2023-07-08T03:14:32;9.07;;;5.70;;
55312;SDS011;46892;45.668;11.756;2023-07-08T03:16:58;8.63;;;6.07;;
55312;SDS011;46892;45.668;11.756;2023-07-08T03:19:23;8.43;;;5.03;;
55312;SDS011;46892;45.668;11.756;2023-07-08T03:21:49;10.93;;;6.30;;
55312;SDS011;46892;45.668;11.756;2023-07-08T03:24:15;9.87;;;5.87;;
55312;SDS011;46892;45.668;11.756;2023-07-08T03:26:43;10.30;;;6.07;;
55312;SDS011;46892;45.668;11.756;2023-07-08T03:29:14;11.83;;;6.50;;
55312;SDS011;46892;45.668;11.756;2023-07-08T03:31:41;12.90;;;6.27;;
55312;SDS011;46892;45.668;11.756;2023-07-08T03:34:09;11.63;;;5.83;;
55312;SDS011;46892;45.668;11.756;2023-07-08T03:36:36;14.03;;;6.60;;
55312;SDS011;46892;45.668;11.756;2023-07-08T03:39:16;11.98;;;6.13;;
55312;SDS011;46892;45.668;11.756;2023-07-08T03:41:47;13.93;;;6.50;;
55312;SDS011;46892;45.668;11.756;2023-07-08T03:44:14;11.37;;;6.57;;
55312;SDS011;46892;45.668;11.756;2023-07-08T03:46:43;11.07;;;6.10;;
55312;SDS011;46892;45.668;11.756;2023-07-08T03:49:10;13.37;;;5.97;;
55312;SDS011;46892;45.668;11.756;2023-07-08T03:51:37;12.93;;;5.73;;
55312;SDS011;46892;45.668;11.756;2023-07-08T03:54:04;11.23;;;5.80;;
55312;SDS011;46892;45.668;11.756;2023-07-08T03:56:31;12.80;;;6.20;;
55312;SDS011;46892;45.668;11.756;2023-07-08T03:58:57;11.53;;;6.10;;
55312;SDS011;46892;45.668;11.756;2023-07-08T04:01:24;11.37;;;5.87;;
55312;SDS011;46892;45.668;11.756;2023-07-08T04:03:55;11.30;;;6.17;;
55312;SDS011;46892;45.668;11.756;2023-07-08T04:06:22;11.33;;;5.57;;
55312;SDS011;46892;45.668;11.756;2023-07-08T04:08:48;8.90;;;5.73;;
55312;SDS011;46892;45.668;11.756;2023-07-08T04:11:16;10.43;;;6.33;;
55312;SDS011;46892;45.668;11.756;2023-07-08T04:13:47;9.53;;;6.30;;
55312;SDS011;46892;45.668;11.756;2023-07-08T04:18:43;12.02;;;6.10;;
55312;SDS011;46892;45.668;11.756;2023-07-08T04:21:09;13.97;;;7.00;;
55312;SDS011;46892;45.668;11.756;2023-07-08T04:23:35;12.57;;;6.43;;
55312;SDS011;46892;45.668;11.756;2023-07-08T04:26:00;10.93;;;5.70;;
55312;SDS011;46892;45.668;11.756;2023-07-08T04:28:27;8.63;;;5.40;;
55312;SDS011;46892;45.668;11.756;2023-07-08T04:30:52;10.77;;;6.23;;
55312;SDS011;46892;45.668;11.756;2023-07-08T04:33:18;9.70;;;6.37;;
55312;SDS011;46892;45.668;11.756;2023-07-08T04:35:44;8.20;;;5.53;;
55312;SDS011;46892;45.668;11.756;2023-07-08T04:38:20;8.53;;;6.03;;
55312;SDS011;46892;45.668;11.756;2023-07-08T04:40:48;7.43;;;5.10;;
55312;SDS011;46892;45.668;11.756;2023-07-08T04:43:16;9.53;;;5.57;;
55312;SDS011;46892;45.668;11.756;2023-07-08T04:45:43;10.30;;;5.80;;
55312;SDS011;46892;45.668;11.756;2023-07-08T04:48:14;9.83;;;5.90;;
55312;SDS011;46892;45.668;11.756;2023-07-08T04:50:44;8.35;;;5.30;;
55312;SDS011;46892;45.668;11.756;2023-07-08T04:53:11;7.57;;;5.20;;
55312;SDS011;46892;45.668;11.756;2023-07-08T04:55:38;7.63;;;5.07;;
55312;SDS011;46892;45.668;11.756;2023-07-08T04:58:06;9.07;;;5.43;;
55312;SDS011;46892;45.668;11.756;2023-07-08T05:00:32;6.93;;;4.70;;
55312;SDS011;46892;45.668;11.756;2023-07-08T05:02:57;8.23;;;4.97;;
55312;SDS011;46892;45.668;11.756;2023-07-08T05:05:23;7.97;;;4.30;;
55312;SDS011;46892;45.668;11.756;2023-07-08T05:07:49;6.60;;;4.50;;
55312;SDS011;46892;45.668;11.756;2023-07-08T05:10:16;6.60;;;4.57;;
55312;SDS011;46892;45.668;11.756;2023-07-08T05:12:43;7.57;;;4.20;;
55312;SDS011;46892;45.668;11.756;2023-07-08T05:15:09;8.47;;;4.43;;
55312;SDS011;46892;45.668;11.756;2023-07-08T05:17:36;6.70;;;4.27;;
55312;SDS011;46892;45.668;11.756;2023-07-08T05:20:03;7.47;;;4.40;;
55312;SDS011;46892;45.668;11.756;2023-07-08T05:22:30;8.40;;;4.60;;
55312;SDS011;46892;45.668;11.756;2023-07-08T05:24:56;7.27;;;4.50;;
55312;SDS011;46892;45.668;11.756;2023-07-08T05:27:22;7.20;;;4.27;;
55312;SDS011;46892;45.668;11.756;2023-07-08T05:29:49;7.93;;;4.20;;
55312;SDS011;46892;45.668;11.756;2023-07-08T05:32:15;6.57;;;4.15;;
55312;SDS011;46892;45.668;11.756;2023-07-08T05:34:42;8.07;;;4.37;;
55312;SDS011;46892;45.668;11.756;2023-07-08T05:37:08;6.57;;;3.75;;
55312;SDS011;46892;45.668;11.756;2023-07-08T05:39:34;7.90;;;4.13;;
55312;SDS011;46892;45.668;11.756;2023-07-08T05:42:00;7.85;;;4.32;;
55312;SDS011;46892;45.668;11.756;2023-07-08T05:44:26;6.00;;;3.70;;
55312;SDS011;46892;45.668;11.756;2023-07-08T05:46:52;9.07;;;3.83;;
55312;SDS011;46892;45.668;11.756;2023-07-08T05:49:18;5.95;;;3.83;;
55312;SDS011;46892;45.668;11.756;2023-07-08T05:51:44;6.78;;;3.92;;
55312;SDS011;46892;45.668;11.756;2023-07-08T05:54:10;8.05;;;3.90;;
55312;SDS011;46892;45.668;11.756;2023-07-08T05:56:35;6.40;;;3.75;;
55312;SDS011;46892;45.668;11.756;2023-07-08T05:59:02;7.45;;;3.88;;
55312;SDS011;46892;45.668;11.756;2023-07-08T06:01:28;10.10;;;4.00;;
55312;SDS011;46892;45.668;11.756;2023-07-08T06:03:54;8.00;;;4.00;;
55312;SDS011;46892;45.668;11.756;2023-07-08T06:06:23;7.95;;;3.67;;
55312;SDS011;46892;45.668;11.756;2023-07-08T06:08:49;7.55;;;4.20;;
55312;SDS011;46892;45.668;11.756;2023-07-08T06:11:15;6.05;;;3.70;;
55312;SDS011;46892;45.668;11.756;2023-07-08T06:13:41;5.22;;;3.50;;
55312;SDS011;46892;45.668;11.756;2023-07-08T06:16:07;6.88;;;3.55;;
55312;SDS011;46892;45.668;11.756;2023-07-08T06:18:33;7.07;;;4.25;;
55312;SDS011;46892;45.668;11.756;2023-07-08T06:20:59;8.20;;;4.22;;
55312;SDS011;46892;45.668;11.756;2023-07-08T06:23:25;6.75;;;4.10;;
55312;SDS011;46892;45.668;11.756;2023-07-08T06:25:51;8.80;;;3.22;;
55312;SDS011;46892;45.668;11.756;2023-07-08T06:28:17;7.38;;;3.90;;
55312;SDS011;46892;45.668;11.756;2023-07-08T06:30:43;7.47;;;3.92;;
55312;SDS011;46892;45.668;11.756;2023-07-08T06:33:09;6.30;;;3.65;;
55312;SDS011;46892;45.668;11.756;2023-07-08T06:35:36;7.55;;;4.18;;
55312;SDS011;46892;45.668;11.756;2023-07-08T06:38:02;9.07;;;3.67;;
55312;SDS011;46892;45.668;11.756;2023-07-08T06:40:28;9.52;;;4.75;;
55312;SDS011;46892;45.668;11.756;2023-07-08T06:42:54;7.03;;;4.25;;
55312;SDS011;46892;45.668;11.756;2023-07-08T06:45:20;7.40;;;4.45;;
55312;SDS011;46892;45.668;11.756;2023-07-08T06:47:45;7.05;;;4.15;;
55312;SDS011;46892;45.668;11.756;2023-07-08T06:50:12;7.88;;;3.90;;
55312;SDS011;46892;45.668;11.756;2023-07-08T06:52:38;7.38;;;3.90;;
55312;SDS011;46892;45.668;11.756;2023-07-08T06:55:04;6.22;;;3.75;;
55312;SDS011;46892;45.668;11.756;2023-07-08T06:57:32;5.13;;;3.47;;
55312;SDS011;46892;45.668;11.756;2023-07-08T06:59:58;6.60;;;4.13;;
55312;SDS011;46892;45.668;11.756;2023-07-08T07:02:24;5.57;;;3.92;;
55312;SDS011;46892;45.668;11.756;2023-07-08T07:04:49;8.05;;;4.45;;
55312;SDS011;46892;45.668;11.756;2023-07-08T07:07:15;7.75;;;4.72;;
55312;SDS011;46892;45.668;11.756;2023-07-08T07:09:41;7.18;;;4.50;;
55312;SDS011;46892;45.668;11.756;2023-07-08T07:12:06;7.10;;;4.43;;
55312;SDS011;46892;45.668;11.756;2023-07-08T07:14:32;5.38;;;3.50;;
55312;SDS011;46892;45.668;11.756;2023-07-08T07:16:58;7.35;;;4.35;;
55312;SDS011;46892;45.668;11.756;2023-07-08T07:19:25;6.90;;;4.32;;
55312;SDS011;46892;45.668;11.756;2023-07-08T07:21:50;7.57;;;4.40;;
55312;SDS011;46892;45.668;11.756;2023-07-08T07:24:16;7.80;;;4.50;;
55312;SDS011;46892;45.668;11.756;2023-07-08T07:26:43;8.40;;;4.38;;
55312;SDS011;46892;45.668;11.756;2023-07-08T07:29:09;6.18;;;3.90;;
55312;SDS011;46892;45.668;11.756;2023-07-08T07:31:35;6.35;;;3.80;;
55312;SDS011;46892;45.668;11.756;2023-07-08T07:34:01;5.72;;;4.00;;
55312;SDS011;46892;45.668;11.756;2023-07-08T07:36:27;6.85;;;4.32;;
55312;SDS011;46892;45.668;11.756;2023-07-08T07:38:54;6.03;;;3.95;;
55312;SDS011;46892;45.668;11.756;2023-07-08T07:41:20;7.00;;;4.13;;
55312;SDS011;46892;45.668;11.756;2023-07-08T07:43:46;7.60;;;4.55;;
55312;SDS011;46892;45.668;11.756;2023-07-08T07:46:12;5.88;;;3.47;;
55312;SDS011;46892;45.668;11.756;2023-07-08T07:48:38;7.10;;;3.92;;
55312;SDS011;46892;45.668;11.756;2023-07-08T07:51:04;7.15;;;4.47;;
55312;SDS011;46892;45.668;11.756;2023-07-08T07:53:30;6.90;;;3.90;;
55312;SDS011;46892;45.668;11.756;2023-07-08T07:55:57;7.22;;;4.10;;
55312;SDS011;46892;45.668;11.756;2023-07-08T07:58:24;5.88;;;3.60;;
55312;SDS011;46892;45.668;11.756;2023-07-08T08:00:50;6.55;;;3.80;;
55312;SDS011;46892;45.668;11.756;2023-07-08T08:03:16;7.05;;;3.60;;
55312;SDS011;46892;45.668;11.756;2023-07-08T08:05:42;7.38;;;4.10;;
55312;SDS011;46892;45.668;11.756;2023-07-08T08:08:08;5.93;;;4.10;;
55312;SDS011;46892;45.668;11.756;2023-07-08T08:10:34;6.70;;;3.47;;
55312;SDS011;46892;45.668;11.756;2023-07-08T08:13:01;6.18;;;3.75;;
55312;SDS011;46892;45.668;11.756;2023-07-08T08:15:27;6.85;;;4.00;;
55312;SDS011;46892;45.668;11.756;2023-07-08T08:17:53;5.78;;;3.67;;
55312;SDS011;46892;45.668;11.756;2023-07-08T08:20:19;5.63;;;3.55;;
55312;SDS011;46892;45.668;11.756;2023-07-08T08:22:47;6.63;;;3.55;;
55312;SDS011;46892;45.668;11.756;2023-07-08T08:25:13;5.50;;;3.47;;
55312;SDS011;46892;45.668;11.756;2023-07-08T08:27:40;6.68;;;3.88;;
55312;SDS011;46892;45.668;11.756;2023-07-08T08:30:06;9.43;;;4.13;;
55312;SDS011;46892;45.668;11.756;2023-07-08T08:32:32;5.00;;;3.35;;
55312;SDS011;46892;45.668;11.756;2023-07-08T08:34:58;8.13;;;4.35;;
55312;SDS011;46892;45.668;11.756;2023-07-08T08:37:24;5.72;;;3.67;;
55312;SDS011;46892;45.668;11.756;2023-07-08T08:39:50;7.78;;;3.75;;
55312;SDS011;46892;45.668;11.756;2023-07-08T08:42:22;7.45;;;4.20;;
55312;SDS011;46892;45.668;11.756;2023-07-08T08:47:30;6.05;;;3.78;;
55312;SDS011;46892;45.668;11.756;2023-07-08T08:52:31;7.38;;;3.97;;
55312;SDS011;46892;45.668;11.756;2023-07-08T08:54:56;6.32;;;4.05;;
55312;SDS011;46892;45.668;11.756;2023-07-08T08:59:55;8.48;;;3.72;;
55312;SDS011;46892;45.668;11.756;2023-07-08T09:02:28;7.07;;;4.40;;
55312;SDS011;46892;45.668;11.756;2023-07-08T09:05:09;6.85;;;3.88;;
55312;SDS011;46892;45.668;11.756;2023-07-08T09:07:59;5.35;;;3.50;;
55312;SDS011;46892;45.668;11.756;2023-07-08T09:12:54;6.13;;;3.97;;
55312;SDS011;46892;45.668;11.756;2023-07-08T09:15:21;5.60;;;3.42;;
55312;SDS011;46892;45.668;11.756;2023-07-08T09:17:47;10.30;;;4.32;;
55312;SDS011;46892;45.668;11.756;2023-07-08T09:22:45;7.18;;;4.10;;
55312;SDS011;46892;45.668;11.756;2023-07-08T09:28:19;7.82;;;3.92;;
55312;SDS011;46892;45.668;11.756;2023-07-08T09:30:48;6.78;;;4.35;;
55312;SDS011;46892;45.668;11.756;2023-07-08T09:33:18;8.80;;;4.72;;
55312;SDS011;46892;45.668;11.756;2023-07-08T09:35:47;7.00;;;4.50;;
55312;SDS011;46892;45.668;11.756;2023-07-08T09:40:49;7.57;;;4.10;;
55312;SDS011;46892;45.668;11.756;2023-07-08T09:43:26;5.97;;;3.80;;
55312;SDS011;46892;45.668;11.756;2023-07-08T09:45:57;6.32;;;4.25;;
55312;SDS011;46892;45.668;11.756;2023-07-08T09:48:25;8.38;;;4.20;;
55312;SDS011;46892;45.668;11.756;2023-07-08T09:50:56;7.13;;;4.28;;
55312;SDS011;46892;45.668;11.756;2023-07-08T09:53:23;6.00;;;4.18;;
55312;SDS011;46892;45.668;11.756;2023-07-08T09:55:49;8.52;;;4.15;;
55312;SDS011;46892;45.668;11.756;2023-07-08T09:58:21;6.13;;;3.53;;
55312;SDS011;46892;45.668;11.756;2023-07-08T10:01:00;5.38;;;3.20;;
55312;SDS011;46892;45.668;11.756;2023-07-08T10:03:32;6.32;;;3.90;;
55312;SDS011;46892;45.668;11.756;2023-07-08T10:06:02;6.13;;;3.60;;
55312;SDS011;46892;45.668;11.756;2023-07-08T10:08:35;5.25;;;3.10;;
55312;SDS011;46892;45.668;11.756;2023-07-08T10:11:13;5.85;;;3.63;;
55312;SDS011;46892;45.668;11.756;2023-07-08T10:13:48;5.13;;;3.33;;
55312;SDS011;46892;45.668;11.756;2023-07-08T10:16:32;6.32;;;3.20;;
55312;SDS011;46892;45.668;11.756;2023-07-08T10:18:59;5.53;;;3.30;;
55312;SDS011;46892;45.668;11.756;2023-07-08T10:27:06;4.80;;;3.50;;
55312;SDS011;46892;45.668;11.756;2023-07-08T10:32:24;5.40;;;3.20;;
55312;SDS011;46892;45.668;11.756;2023-07-08T10:35:47;5.72;;;3.55;;
55312;SDS011;46892;45.668;11.756;2023-07-08T10:45:47;5.63;;;3.67;;
55312;SDS011;46892;45.668;11.756;2023-07-08T10:51:19;7.38;;;3.67;;
55312;SDS011;46892;45.668;11.756;2023-07-08T10:56:28;6.18;;;3.33;;
55312;SDS011;46892;45.668;11.756;2023-07-08T10:59:06;5.30;;;3.60;;
55312;SDS011;46892;45.668;11.756;2023-07-08T11:02:18;4.97;;;3.28;;
55312;SDS011;46892;45.668;11.756;2023-07-08T11:10:32;6.40;;;3.78;;
55312;SDS011;46892;45.668;11.756;2023-07-08T11:13:06;6.43;;;3.60;;
55312;SDS011;46892;45.668;11.756;2023-07-08T11:15:50;4.68;;;3.22;;
55312;SDS011;46892;45.668;11.756;2023-07-08T11:18:29;5.15;;;3.40;;
55312;SDS011;46892;45.668;11.756;2023-07-08T11:29:00;5.18;;;3.42;;
55312;SDS011;46892;45.668;11.756;2023-07-08T11:31:29;7.30;;;3.88;;
55312;SDS011;46892;45.668;11.756;2023-07-08T11:33:57;6.53;;;4.05;;
55312;SDS011;46892;45.668;11.756;2023-07-08T11:36:25;5.85;;;3.58;;
55312;SDS011;46892;45.668;11.756;2023-07-08T11:38:54;4.88;;;3.25;;
55312;SDS011;46892;45.668;11.756;2023-07-08T11:41:22;5.22;;;3.40;;
55312;SDS011;46892;45.668;11.756;2023-07-08T11:44:03;5.45;;;3.78;;
55312;SDS011;46892;45.668;11.756;2023-07-08T11:49:00;5.20;;;3.50;;
55312;SDS011;46892;45.668;11.756;2023-07-08T11:51:30;6.68;;;3.40;;
55312;SDS011;46892;45.668;11.756;2023-07-08T11:54:26;5.90;;;3.35;;
55312;SDS011;46892;45.668;11.756;2023-07-08T11:56:59;5.40;;;3.33;;
55312;SDS011;46892;45.668;11.756;2023-07-08T11:59:30;6.97;;;3.53;;
55312;SDS011;46892;45.668;11.756;2023-07-08T12:02:02;8.95;;;3.65;;
55312;SDS011;46892;45.668;11.756;2023-07-08T12:07:47;7.82;;;3.70;;
55312;SDS011;46892;45.668;11.756;2023-07-08T12:12:59;5.17;;;3.60;;
55312;SDS011;46892;45.668;11.756;2023-07-08T12:15:25;6.07;;;3.60;;
55312;SDS011;46892;45.668;11.756;2023-07-08T12:17:54;6.28;;;3.50;;
55312;SDS011;46892;45.668;11.756;2023-07-08T12:20:41;4.30;;;3.08;;
55312;SDS011;46892;45.668;11.756;2023-07-08T12:23:11;7.03;;;3.55;;
55312;SDS011;46892;45.668;11.756;2023-07-08T12:25:42;5.30;;;3.50;;
55312;SDS011;46892;45.668;11.756;2023-07-08T12:28:09;6.60;;;3.65;;
55312;SDS011;46892;45.668;11.756;2023-07-08T12:30:37;5.47;;;3.42;;
55312;SDS011;46892;45.668;11.756;2023-07-08T12:33:05;5.00;;;3.47;;
55312;SDS011;46892;45.668;11.756;2023-07-08T12:35:37;5.45;;;3.47;;
55312;SDS011;46892;45.668;11.756;2023-07-08T12:38:06;4.65;;;3.28;;
55312;SDS011;46892;45.668;11.756;2023-07-08T12:40:56;6.28;;;3.70;;
55312;SDS011;46892;45.668;11.756;2023-07-08T12:43:27;5.03;;;3.28;;
55312;SDS011;46892;45.668;11.756;2023-07-08T12:45:52;6.78;;;3.65;;
55312;SDS011;46892;45.668;11.756;2023-07-08T12:48:18;5.90;;;3.35;;
55312;SDS011;46892;45.668;11.756;2023-07-08T12:50:44;4.85;;;3.35;;
55312;SDS011;46892;45.668;11.756;2023-07-08T12:53:10;6.72;;;3.92;;
55312;SDS011;46892;45.668;11.756;2023-07-08T12:55:41;6.82;;;3.72;;
55312;SDS011;46892;45.668;11.756;2023-07-08T12:58:12;9.50;;;3.97;;
55312;SDS011;46892;45.668;11.756;2023-07-08T13:00:41;4.80;;;3.33;;
55312;SDS011;46892;45.668;11.756;2023-07-08T13:03:10;5.63;;;3.45;;
55312;SDS011;46892;45.668;11.756;2023-07-08T13:05:41;6.78;;;3.50;;
55312;SDS011;46892;45.668;11.756;2023-07-08T13:08:18;5.93;;;3.60;;
55312;SDS011;46892;45.668;11.756;2023-07-08T13:10:46;5.22;;;3.30;;
55312;SDS011;46892;45.668;11.756;2023-07-08T13:13:17;5.05;;;3.45;;
55312;SDS011;46892;45.668;11.756;2023-07-08T13:15:46;6.60;;;3.45;;
55312;SDS011;46892;45.668;11.756;2023-07-08T13:18:14;6.28;;;3.85;;
55312;SDS011;46892;45.668;11.756;2023-07-08T13:20:49;5.50;;;3.20;;
55312;SDS011;46892;45.668;11.756;2023-07-08T13:23:17;4.60;;;3.28;;
55312;SDS011;46892;45.668;11.756;2023-07-08T13:25:46;5.55;;;3.28;;
55312;SDS011;46892;45.668;11.756;2023-07-08T13:28:17;4.82;;;3.58;;
55312;SDS011;46892;45.668;11.756;2023-07-08T13:31:13;5.72;;;3.85;;
55312;SDS011;46892;45.668;11.756;2023-07-08T13:33:49;6.18;;;3.38;;
55312;SDS011;46892;45.668;11.756;2023-07-08T13:36:17;6.45;;;3.75;;
55312;SDS011;46892;45.668;11.756;2023-07-08T13:38:44;8.20;;;3.20;;
55312;SDS011;46892;45.668;11.756;2023-07-08T13:41:10;6.13;;;3.47;;
55312;SDS011;46892;45.668;11.756;2023-07-08T13:43:42;4.95;;;3.05;;
55312;SDS011;46892;45.668;11.756;2023-07-08T13:46:25;6.53;;;3.90;;
55312;SDS011;46892;45.668;11.756;2023-07-08T13:49:00;4.95;;;3.00;;
55312;SDS011;46892;45.668;11.756;2023-07-08T13:51:34;5.15;;;3.60;;
55312;SDS011;46892;45.668;11.756;2023-07-08T13:54:00;5.57;;;3.28;;
55312;SDS011;46892;45.668;11.756;2023-07-08T13:56:46;5.45;;;3.50;;
55312;SDS011;46892;45.668;11.756;2023-07-08T13:59:15;13.52;;;4.32;;
55312;SDS011;46892;45.668;11.756;2023-07-08T14:01:48;6.47;;;3.42;;
55312;SDS011;46892;45.668;11.756;2023-07-08T14:04:18;5.63;;;3.27;;
55312;SDS011;46892;45.668;11.756;2023-07-08T14:06:46;7.68;;;3.40;;
55312;SDS011;46892;45.668;11.756;2023-07-08T14:09:13;16.35;;;4.45;;
55312;SDS011;46892;45.668;11.756;2023-07-08T14:11:41;6.13;;;3.58;;
55312;SDS011;46892;45.668;11.756;2023-07-08T14:14:08;5.32;;;3.45;;
55312;SDS011;46892;45.668;11.756;2023-07-08T14:16:34;5.70;;;3.50;;
55312;SDS011;46892;45.668;11.756;2023-07-08T14:19:05;5.35;;;3.53;;
55312;SDS011;46892;45.668;11.756;2023-07-08T14:21:35;6.47;;;3.90;;
55312;SDS011;46892;45.668;11.756;2023-07-08T14:24:02;5.15;;;3.22;;
55312;SDS011;46892;45.668;11.756;2023-07-08T14:26:34;5.75;;;3.50;;
55312;SDS011;46892;45.668;11.756;2023-07-08T14:29:00;5.38;;;3.33;;
55312;SDS011;46892;45.668;11.756;2023-07-08T14:31:26;5.78;;;3.75;;
55312;SDS011;46892;45.668;11.756;2023-07-08T14:34:00;4.88;;;3.40;;
55312;SDS011;46892;45.668;11.756;2023-07-08T14:36:29;6.28;;;3.58;;
55312;SDS011;46892;45.668;11.756;2023-07-08T14:38:55;5.68;;;3.67;;
55312;SDS011;46892;45.668;11.756;2023-07-08T14:41:22;4.90;;;2.95;;
55312;SDS011;46892;45.668;11.756;2023-07-08T14:43:48;5.20;;;3.42;;
55312;SDS011;46892;45.668;11.756;2023-07-08T14:46:14;4.95;;;3.17;;
55312;SDS011;46892;45.668;11.756;2023-07-08T14:48:41;5.45;;;3.45;;
55312;SDS011;46892;45.668;11.756;2023-07-08T14:51:07;6.57;;;3.85;;
55312;SDS011;46892;45.668;11.756;2023-07-08T14:53:33;5.68;;;3.55;;
55312;SDS011;46892;45.668;11.756;2023-07-08T14:55:58;5.78;;;3.10;;
55312;SDS011;46892;45.668;11.756;2023-07-08T14:58:37;4.70;;;3.17;;
55312;SDS011;46892;45.668;11.756;2023-07-08T15:01:08;5.00;;;3.17;;
55312;SDS011;46892;45.668;11.756;2023-07-08T15:03:45;5.35;;;3.20;;
55312;SDS011;46892;45.668;11.756;2023-07-08T15:06:11;5.60;;;3.03;;
55312;SDS011;46892;45.668;11.756;2023-07-08T15:08:37;5.93;;;3.65;;
55312;SDS011;46892;45.668;11.756;2023-07-08T15:11:04;7.32;;;3.40;;
55312;SDS011;46892;45.668;11.756;2023-07-08T15:13:33;5.10;;;3.33;;
55312;SDS011;46892;45.668;11.756;2023-07-08T15:16:00;5.10;;;3.33;;
55312;SDS011;46892;45.668;11.756;2023-07-08T15:18:26;6.70;;;3.53;;
55312;SDS011;46892;45.668;11.756;2023-07-08T15:20:52;4.97;;;3.42;;
55312;SDS011;46892;45.668;11.756;2023-07-08T15:23:17;8.02;;;3.63;;
55312;SDS011;46892;45.668;11.756;2023-07-08T15:25:44;5.72;;;3.90;;
55312;SDS011;46892;45.668;11.756;2023-07-08T15:28:32;6.10;;;3.22;;
55312;SDS011;46892;45.668;11.756;2023-07-08T15:33:27;6.88;;;3.60;;
55312;SDS011;46892;45.668;11.756;2023-07-08T15:35:52;5.85;;;3.13;;
55312;SDS011;46892;45.668;11.756;2023-07-08T15:38:18;5.28;;;3.30;;
55312;SDS011;46892;45.668;11.756;2023-07-08T15:40:44;5.82;;;3.22;;
55312;SDS011;46892;45.668;11.756;2023-07-08T15:43:13;6.43;;;3.20;;
55312;SDS011;46892;45.668;11.756;2023-07-08T15:45:40;4.13;;;2.83;;
55312;SDS011;46892;45.668;11.756;2023-07-08T15:48:15;6.88;;;3.60;;
55312;SDS011;46892;45.668;11.756;2023-07-08T15:50:43;6.43;;;3.65;;